createdAt,value
2024-01-14T00:00:34.457Z,59.80
2024-01-14T00:01:06.634Z,59.50
2024-01-14T00:01:38.600Z,59.63
2024-01-14T00:02:10.698Z,60.01
2024-01-14T00:02:42.632Z,59.79
2024-01-14T00:03:14.662Z,60.28
2024-01-14T00:03:46.705Z,59.89
2024-01-14T00:04:18.856Z,59.78
2024-01-14T00:04:50.778Z,59.89
2024-01-14T00:05:22.716Z,59.81
2024-01-14T00:05:54.787Z,59.96
2024-01-14T00:06:26.913Z,59.84
2024-01-14T00:06:58.916Z,59.80
2024-01-14T00:07:30.849Z,59.97
2024-01-14T00:08:03.487Z,59.49
2024-01-14T00:08:35.416Z,59.56
2024-01-14T00:09:07.734Z,59.58
2024-01-14T00:09:39.706Z,59.64
2024-01-14T00:10:11.697Z,59.12
2024-01-14T00:10:43.628Z,59.83
2024-01-14T00:11:15.559Z,59.77
2024-01-14T00:11:47.522Z,59.80
2024-01-14T00:12:19.502Z,59.27
2024-01-14T00:12:52.068Z,59.78
2024-01-14T00:13:24.059Z,60.28
2024-01-14T00:13:55.990Z,59.96
2024-01-14T00:14:27.925Z,59.78
2024-01-14T00:14:59.932Z,59.87
2024-01-14T00:15:32.162Z,59.63
2024-01-14T00:16:04.923Z,59.50
2024-01-14T00:16:37.069Z,59.68
2024-01-14T00:17:09.329Z,59.85
2024-01-14T00:17:42.615Z,59.84
2024-01-14T00:18:14.864Z,59.83
2024-01-14T00:18:47.017Z,60.18
2024-01-14T00:19:19.237Z,59.68
2024-01-14T00:19:52.725Z,60.18
2024-01-14T00:20:24.764Z,60.15
2024-01-14T00:20:56.792Z,59.78
2024-01-14T00:21:28.915Z,60.30
2024-01-14T00:22:00.922Z,59.83
2024-01-14T00:22:32.874Z,59.97
2024-01-14T00:23:04.853Z,59.67
2024-01-14T00:23:36.806Z,60.45
2024-01-14T00:24:08.855Z,60.54
2024-01-14T00:24:40.856Z,59.80
2024-01-14T00:25:13.427Z,60.01
2024-01-14T00:25:45.392Z,59.98
2024-01-14T00:26:17.306Z,60.01
2024-01-14T00:26:49.295Z,60.42
2024-01-14T00:27:21.402Z,60.59
2024-01-14T00:27:53.361Z,60.36
2024-01-14T00:28:25.299Z,60.03
2024-01-14T00:28:58.423Z,60.13
2024-01-14T00:29:30.316Z,59.83
2024-01-14T00:30:02.520Z,60.33
2024-01-14T00:30:34.724Z,60.26
2024-01-14T00:31:06.856Z,60.29
2024-01-14T00:31:38.892Z,60.50
2024-01-14T00:32:10.910Z,60.06
2024-01-14T00:32:42.924Z,60.19
2024-01-14T00:33:15.049Z,60.02
2024-01-14T00:33:47.506Z,59.97
2024-01-14T00:34:19.683Z,60.06
2024-01-14T00:34:51.677Z,59.80
2024-01-14T00:35:23.622Z,60.14
2024-01-14T00:35:55.690Z,59.63
2024-01-14T00:36:27.716Z,60.27
2024-01-14T00:36:59.652Z,59.72
2024-01-14T00:37:31.574Z,60.33
2024-01-14T00:38:03.700Z,60.29
2024-01-14T00:38:35.701Z,59.70
2024-01-14T00:39:07.973Z,60.05
2024-01-14T00:39:40.184Z,60.43
2024-01-14T00:40:12.327Z,59.61
2024-01-14T00:40:44.288Z,59.70
2024-01-14T00:41:16.406Z,59.97
2024-01-14T00:41:48.502Z,60.53
2024-01-14T00:42:20.502Z,60.37
2024-01-14T00:42:52.458Z,60.54
2024-01-14T00:43:24.440Z,60.51
2024-01-14T00:43:56.358Z,61.00
2024-01-14T00:44:28.323Z,60.79
2024-01-14T00:45:00.355Z,60.71
2024-01-14T00:45:32.570Z,59.77
2024-01-14T00:46:05.391Z,60.57
2024-01-14T00:46:37.320Z,60.24
2024-01-14T00:47:09.232Z,60.52
2024-01-14T00:47:41.298Z,60.45
2024-01-14T00:48:13.341Z,60.25
2024-01-14T00:48:45.492Z,61.14
2024-01-14T00:49:17.640Z,61.12
2024-01-14T00:49:49.659Z,60.44
2024-01-14T00:50:21.604Z,60.52
2024-01-14T00:50:53.720Z,60.55
2024-01-14T00:51:25.845Z,60.53
2024-01-14T00:51:57.859Z,60.99
2024-01-14T00:52:29.909Z,60.52
2024-01-14T00:53:01.836Z,60.80
2024-01-14T00:53:33.776Z,60.71
2024-01-14T00:54:05.732Z,60.41
2024-01-14T00:54:37.715Z,59.87
2024-01-14T00:55:10.445Z,59.77
2024-01-14T00:55:42.414Z,60.00
2024-01-14T00:56:14.372Z,60.80
2024-01-14T00:56:46.879Z,60.42
2024-01-14T00:57:19.424Z,59.71
2024-01-14T00:57:51.405Z,60.22
2024-01-14T00:58:23.406Z,60.35
2024-01-14T00:58:55.366Z,59.47
2024-01-14T00:59:27.302Z,59.90
2024-01-14T00:59:59.248Z,59.96
2024-01-14T01:00:31.716Z,59.81
2024-01-14T01:01:04.087Z,59.98
2024-01-14T01:01:36.201Z,60.05
2024-01-14T01:02:08.209Z,59.64
2024-01-14T01:02:40.142Z,60.09
2024-01-14T01:03:12.155Z,59.98
2024-01-14T01:03:44.237Z,59.44
2024-01-14T01:04:16.214Z,60.13
2024-01-14T01:04:48.208Z,59.65
2024-01-14T01:05:20.419Z,60.20
2024-01-14T01:05:54.786Z,60.52
2024-01-14T01:06:26.934Z,60.52
2024-01-14T01:06:58.856Z,60.66
2024-01-14T01:07:32.098Z,61.09
2024-01-14T01:08:04.183Z,59.76
2024-01-14T01:08:36.128Z,59.97
2024-01-14T01:09:08.221Z,59.96
2024-01-14T01:09:40.200Z,60.39
2024-01-14T01:10:12.600Z,59.78
2024-01-14T01:10:44.540Z,60.85
2024-01-14T01:11:17.954Z,60.34
2024-01-14T01:11:49.957Z,60.24
2024-01-14T01:12:21.920Z,59.87
2024-01-14T01:12:53.835Z,59.95
2024-01-14T01:13:25.775Z,60.02
2024-01-14T01:13:57.746Z,60.18
2024-01-14T01:14:29.674Z,60.14
2024-01-14T01:15:01.828Z,60.41
2024-01-14T01:15:33.971Z,60.71
2024-01-14T01:16:06.080Z,60.66
2024-01-14T01:16:38.047Z,60.12
2024-01-14T01:17:10.018Z,59.73
2024-01-14T01:17:42.025Z,59.91
2024-01-14T01:18:14.059Z,60.25
2024-01-14T01:18:46.121Z,59.86
2024-01-14T01:19:18.176Z,59.55
2024-01-14T01:19:50.337Z,60.61
2024-01-14T01:20:22.283Z,59.69
2024-01-14T01:20:54.232Z,60.50
2024-01-14T01:21:26.342Z,60.13
2024-01-14T01:21:58.298Z,59.46
2024-01-14T01:22:30.239Z,60.42
2024-01-14T01:23:02.221Z,59.95
2024-01-14T01:23:34.216Z,60.05
2024-01-14T01:24:06.191Z,59.83
2024-01-14T01:24:39.193Z,60.15
2024-01-14T01:25:14.112Z,59.63
2024-01-14T01:25:46.035Z,60.25
2024-01-14T01:26:18.004Z,60.14
2024-01-14T01:26:50.023Z,59.72
2024-01-14T01:27:22.257Z,60.53
2024-01-14T01:27:54.201Z,60.81
2024-01-14T01:28:26.109Z,60.31
2024-01-14T01:29:00.176Z,60.81
2024-01-14T01:29:33.530Z,60.62
2024-01-14T01:30:06.330Z,61.35
2024-01-14T01:30:38.546Z,60.48
2024-01-14T01:31:10.651Z,60.09
2024-01-14T01:31:47.716Z,60.47
2024-01-14T01:32:23.182Z,60.35
2024-01-14T01:32:55.499Z,60.44
2024-01-14T01:33:27.653Z,60.15
2024-01-14T01:33:59.786Z,60.58
2024-01-14T01:34:31.897Z,60.65
2024-01-14T01:35:04.563Z,60.34
2024-01-14T01:35:37.299Z,60.43
2024-01-14T01:36:09.447Z,60.26
2024-01-14T01:36:41.521Z,60.26
2024-01-14T01:37:13.515Z,60.23
2024-01-14T01:37:46.097Z,59.71
2024-01-14T01:38:18.031Z,60.60
2024-01-14T01:38:49.947Z,60.75
2024-01-14T01:39:22.013Z,60.29
2024-01-14T01:39:53.985Z,60.33
2024-01-14T01:40:25.986Z,60.24
2024-01-14T01:40:57.907Z,60.50
2024-01-14T01:41:29.821Z,60.70
2024-01-14T01:42:01.799Z,60.02
2024-01-14T01:42:35.955Z,60.64
2024-01-14T01:43:08.097Z,60.11
2024-01-14T01:43:40.023Z,60.18
2024-01-14T01:44:12.439Z,60.36
2024-01-14T01:44:44.438Z,59.62
2024-01-14T01:45:16.516Z,60.17
2024-01-14T01:45:48.640Z,60.18
2024-01-14T01:46:20.586Z,59.47
2024-01-14T01:46:53.800Z,60.06
2024-01-14T01:47:25.959Z,59.77
2024-01-14T01:47:58.004Z,59.38
2024-01-14T01:48:30.135Z,59.72
2024-01-14T01:49:02.695Z,59.46
2024-01-14T01:49:34.784Z,59.44
2024-01-14T01:50:07.420Z,59.73
2024-01-14T01:50:40.145Z,59.56
2024-01-14T01:51:12.106Z,59.99
2024-01-14T01:51:48.480Z,59.64
2024-01-14T01:52:20.517Z,59.37
2024-01-14T01:52:52.493Z,58.66
2024-01-14T01:53:26.436Z,58.94
2024-01-14T01:53:58.982Z,59.21
2024-01-14T01:54:31.275Z,60.28
2024-01-14T01:55:04.364Z,59.97
2024-01-14T01:55:36.328Z,59.80
2024-01-14T01:56:08.474Z,59.15
2024-01-14T01:56:40.906Z,59.75
2024-01-14T01:57:14.074Z,59.74
2024-01-14T01:57:46.935Z,59.26
2024-01-14T01:58:18.905Z,59.55
2024-01-14T01:58:51.214Z,59.75
2024-01-14T01:59:23.368Z,59.78
2024-01-14T01:59:55.307Z,59.75
2024-01-14T02:00:27.290Z,59.26
2024-01-14T02:00:59.938Z,59.57
2024-01-14T02:01:33.921Z,59.17
2024-01-14T02:02:06.199Z,59.19
2024-01-14T02:02:38.868Z,58.91
2024-01-14T02:03:12.212Z,59.27
2024-01-14T02:03:44.458Z,59.55
2024-01-14T02:04:17.229Z,59.19
2024-01-14T02:04:49.258Z,58.77
2024-01-14T02:05:22.226Z,58.96
2024-01-14T02:05:56.045Z,59.46
2024-01-14T02:06:29.164Z,59.32
2024-01-14T02:07:01.225Z,58.97
2024-01-14T02:07:33.707Z,59.48
2024-01-14T02:08:05.702Z,59.16
2024-01-14T02:08:38.199Z,59.01
2024-01-14T02:09:10.478Z,58.65
2024-01-14T02:09:42.536Z,58.58
2024-01-14T02:10:14.775Z,58.53
2024-01-14T02:10:46.702Z,58.90
2024-01-14T02:11:18.632Z,59.07
2024-01-14T02:11:50.767Z,58.84
2024-01-14T02:12:22.738Z,58.70
2024-01-14T02:12:54.665Z,58.72
2024-01-14T02:13:26.630Z,58.46
2024-01-14T02:13:58.578Z,58.60
2024-01-14T02:14:30.513Z,58.60
2024-01-14T02:15:02.512Z,58.41
2024-01-14T02:15:34.551Z,58.26
2024-01-14T02:16:07.364Z,58.42
2024-01-14T02:16:39.338Z,58.66
2024-01-14T02:17:11.237Z,58.27
2024-01-14T02:17:43.323Z,58.50
2024-01-14T02:18:15.427Z,58.22
2024-01-14T02:18:47.544Z,58.79
2024-01-14T02:19:19.675Z,58.81
2024-01-14T02:19:51.822Z,58.28
2024-01-14T02:20:23.785Z,58.44
2024-01-14T02:20:56.880Z,58.67
2024-01-14T02:21:39.438Z,58.62
2024-01-14T02:22:19.541Z,58.53
2024-01-14T02:22:54.231Z,58.20
2024-01-14T02:23:27.167Z,58.38
2024-01-14T02:24:15.430Z,59.25
2024-01-14T02:24:47.362Z,58.51
2024-01-14T02:25:19.343Z,58.97
2024-01-14T02:25:51.436Z,58.55
2024-01-14T02:26:23.453Z,58.53
2024-01-14T02:26:55.766Z,57.91
2024-01-14T02:27:27.996Z,58.14
2024-01-14T02:27:59.985Z,57.96
2024-01-14T02:28:32.360Z,58.04
2024-01-14T02:29:06.572Z,57.99
2024-01-14T02:29:39.973Z,58.14
2024-01-14T02:30:12.561Z,58.19
2024-01-14T02:30:45.194Z,57.90
2024-01-14T02:31:17.299Z,57.65
2024-01-14T02:31:49.500Z,58.25
2024-01-14T02:32:21.509Z,58.20
2024-01-14T02:32:56.022Z,57.93
2024-01-14T02:33:28.195Z,57.73
2024-01-14T02:34:00.563Z,57.91
2024-01-14T02:34:33.949Z,58.36
2024-01-14T02:35:08.931Z,58.25
2024-01-14T02:35:41.432Z,58.12
2024-01-14T02:36:13.483Z,58.12
2024-01-14T02:36:45.483Z,58.14
2024-01-14T02:37:17.420Z,58.01
2024-01-14T02:37:49.842Z,58.04
2024-01-14T02:38:21.751Z,57.86
2024-01-14T02:38:53.693Z,57.88
2024-01-14T02:39:25.646Z,57.77
2024-01-14T02:39:57.673Z,57.82
2024-01-14T02:40:29.593Z,57.88
2024-01-14T02:41:01.502Z,57.59
2024-01-14T02:41:34.201Z,57.92
2024-01-14T02:42:06.285Z,57.93
2024-01-14T02:42:39.561Z,57.35
2024-01-14T02:43:11.550Z,57.81
2024-01-14T02:43:43.522Z,57.75
2024-01-14T02:44:15.445Z,57.71
2024-01-14T02:44:47.402Z,57.62
2024-01-14T02:45:20.539Z,57.41
2024-01-14T02:45:52.502Z,57.50
2024-01-14T02:46:25.463Z,57.96
2024-01-14T02:46:57.369Z,57.38
2024-01-14T02:47:29.297Z,57.28
2024-01-14T02:48:01.406Z,57.50
2024-01-14T02:48:33.556Z,57.09
2024-01-14T02:49:05.591Z,57.88
2024-01-14T02:49:37.585Z,57.62
2024-01-14T02:50:09.724Z,57.69
2024-01-14T02:50:41.712Z,57.82
2024-01-14T02:51:13.791Z,57.90
2024-01-14T02:51:47.002Z,57.55
2024-01-14T02:52:18.939Z,57.68
2024-01-14T02:52:50.865Z,57.84
2024-01-14T02:53:22.779Z,57.79
2024-01-14T02:53:54.704Z,57.58
2024-01-14T02:54:26.667Z,57.75
2024-01-14T02:54:58.605Z,57.77
2024-01-14T02:55:30.528Z,57.61
2024-01-14T02:56:03.702Z,57.77
2024-01-14T02:56:35.634Z,57.08
2024-01-14T02:57:07.683Z,57.53
2024-01-14T02:57:39.807Z,57.48
2024-01-14T02:58:11.762Z,57.55
2024-01-14T02:58:43.693Z,57.87
2024-01-14T02:59:15.663Z,57.79
2024-01-14T02:59:47.879Z,57.92
2024-01-14T03:00:19.899Z,57.80
2024-01-14T03:00:51.979Z,57.80
2024-01-14T03:01:24.115Z,57.74
2024-01-14T03:01:56.067Z,58.07
2024-01-14T03:02:28.031Z,57.75
2024-01-14T03:03:00.038Z,57.70
2024-01-14T03:03:32.344Z,57.24
2024-01-14T03:04:04.482Z,57.42
2024-01-14T03:04:36.468Z,57.38
2024-01-14T03:05:08.816Z,57.70
2024-01-14T03:05:41.033Z,57.38
2024-01-14T03:06:13.483Z,57.50
2024-01-14T03:06:45.999Z,57.60
2024-01-14T03:07:18.006Z,57.57
2024-01-14T03:07:49.910Z,57.70
2024-01-14T03:08:21.962Z,57.83
2024-01-14T03:08:53.948Z,57.87
2024-01-14T03:09:25.950Z,57.26
2024-01-14T03:09:57.938Z,57.44
2024-01-14T03:10:29.854Z,57.48
2024-01-14T03:11:01.791Z,57.60
2024-01-14T03:11:34.725Z,58.22
2024-01-14T03:12:06.767Z,58.35
2024-01-14T03:12:38.768Z,58.23
2024-01-14T03:13:12.421Z,57.87
2024-01-14T03:13:45.575Z,58.10
2024-01-14T03:14:17.495Z,58.44
2024-01-14T03:14:49.492Z,58.20
2024-01-14T03:15:21.480Z,57.99
2024-01-14T03:15:53.687Z,57.89
2024-01-14T03:16:25.633Z,57.73
2024-01-14T03:16:57.660Z,57.73
2024-01-14T03:17:29.874Z,57.72
2024-01-14T03:18:01.963Z,57.40
2024-01-14T03:18:34.093Z,57.92
2024-01-14T03:19:06.268Z,57.66
2024-01-14T03:19:38.426Z,58.16
2024-01-14T03:20:10.516Z,58.34
2024-01-14T03:20:43.765Z,57.64
2024-01-14T03:21:20.006Z,57.57
2024-01-14T03:21:52.861Z,57.91
2024-01-14T03:22:24.809Z,57.87
2024-01-14T03:22:56.720Z,57.64
2024-01-14T03:23:28.703Z,57.91
2024-01-14T03:24:00.756Z,57.95
2024-01-14T03:24:32.797Z,57.46
2024-01-14T03:25:05.392Z,57.68
2024-01-14T03:25:37.321Z,57.48
2024-01-14T03:26:09.256Z,57.81
2024-01-14T03:26:41.156Z,57.64
2024-01-14T03:27:13.084Z,57.92
2024-01-14T03:27:45.718Z,58.03
2024-01-14T03:28:17.652Z,57.63
2024-01-14T03:28:49.568Z,57.71
2024-01-14T03:29:21.491Z,57.56
2024-01-14T03:29:53.414Z,57.21
2024-01-14T03:30:25.617Z,57.67
2024-01-14T03:30:57.838Z,57.96
2024-01-14T03:31:29.896Z,57.49
2024-01-14T03:32:01.879Z,57.46
2024-01-14T03:32:34.093Z,58.05
2024-01-14T03:33:06.228Z,57.72
2024-01-14T03:33:38.312Z,57.75
2024-01-14T03:34:10.507Z,57.69
2024-01-14T03:34:42.757Z,58.21
2024-01-14T03:35:15.113Z,58.02
2024-01-14T03:35:47.123Z,57.48
2024-01-14T03:36:19.071Z,57.67
2024-01-14T03:36:51.031Z,57.98
2024-01-14T03:37:23.037Z,58.15
2024-01-14T03:37:54.953Z,57.63
2024-01-14T03:38:26.872Z,57.87
2024-01-14T03:38:58.846Z,57.31
2024-01-14T03:39:30.986Z,57.67
2024-01-14T03:40:03.555Z,57.61
2024-01-14T03:40:35.511Z,57.96
2024-01-14T03:41:07.509Z,57.96
2024-01-14T03:41:39.408Z,57.55
2024-01-14T03:42:11.341Z,58.35
2024-01-14T03:42:43.338Z,58.26
2024-01-14T03:43:15.450Z,58.46
2024-01-14T03:43:47.962Z,58.55
2024-01-14T03:44:19.899Z,58.04
2024-01-14T03:44:51.859Z,58.08
2024-01-14T03:45:23.818Z,58.77
2024-01-14T03:45:55.811Z,58.28
2024-01-14T03:46:27.886Z,58.33
2024-01-14T03:46:59.827Z,57.71
2024-01-14T03:47:31.864Z,57.99
2024-01-14T03:48:04.326Z,58.35
2024-01-14T03:48:37.030Z,57.44
2024-01-14T03:49:10.498Z,58.13
2024-01-14T03:49:42.612Z,58.23
2024-01-14T03:50:14.700Z,58.25
2024-01-14T03:50:46.739Z,58.07
2024-01-14T03:51:18.700Z,57.93
2024-01-14T03:51:50.670Z,57.93
2024-01-14T03:52:22.590Z,58.52
2024-01-14T03:52:54.511Z,58.45
2024-01-14T03:53:26.453Z,57.93
2024-01-14T03:53:58.464Z,58.71
2024-01-14T03:54:30.548Z,58.76
2024-01-14T03:55:02.525Z,58.38
2024-01-14T03:55:34.458Z,58.55
2024-01-14T03:56:06.428Z,58.69
2024-01-14T03:56:38.326Z,58.27
2024-01-14T03:57:10.492Z,58.45
2024-01-14T03:57:42.425Z,57.95
2024-01-14T03:58:14.633Z,58.08
2024-01-14T03:58:46.956Z,58.22
2024-01-14T03:59:18.864Z,58.44
2024-01-14T03:59:50.851Z,58.09
2024-01-14T04:00:22.843Z,58.21
2024-01-14T04:00:54.870Z,59.06
2024-01-14T04:01:26.860Z,59.87
2024-01-14T04:01:58.797Z,59.71
2024-01-14T04:02:30.744Z,59.22
2024-01-14T04:03:02.769Z,58.90
2024-01-14T04:03:34.884Z,58.83
2024-01-14T04:04:07.478Z,59.11
2024-01-14T04:04:39.623Z,58.53
2024-01-14T04:05:11.591Z,58.62
2024-01-14T04:05:44.257Z,58.85
2024-01-14T04:06:20.340Z,58.69
2024-01-14T04:06:52.698Z,58.21
2024-01-14T04:07:24.714Z,58.33
2024-01-14T04:07:56.634Z,58.28
2024-01-14T04:08:28.576Z,59.14
2024-01-14T04:09:00.654Z,58.67
2024-01-14T04:09:32.649Z,58.50
2024-01-14T04:10:04.790Z,58.39
2024-01-14T04:10:36.722Z,58.61
2024-01-14T04:11:09.454Z,58.74
2024-01-14T04:11:41.484Z,58.67
2024-01-14T04:12:13.429Z,58.80
2024-01-14T04:12:45.435Z,58.41
2024-01-14T04:13:17.557Z,58.59
2024-01-14T04:13:49.466Z,57.78
2024-01-14T04:14:21.386Z,57.74
2024-01-14T04:14:53.422Z,58.03
2024-01-14T04:15:25.478Z,57.89
2024-01-14T04:16:01.714Z,58.16
2024-01-14T04:16:41.272Z,58.17
2024-01-14T04:17:13.218Z,58.47
2024-01-14T04:17:45.159Z,57.98
2024-01-14T04:18:17.160Z,58.97
2024-01-14T04:18:49.637Z,59.51
2024-01-14T04:19:21.633Z,59.79
2024-01-14T04:19:53.620Z,61.38
2024-01-14T04:20:25.725Z,61.14
2024-01-14T04:20:58.784Z,60.86
2024-01-14T04:21:31.085Z,60.97
2024-01-14T04:22:03.030Z,60.74
2024-01-14T04:22:35.027Z,61.09
2024-01-14T04:23:06.924Z,61.21
2024-01-14T04:23:38.848Z,60.80
2024-01-14T04:24:10.857Z,60.58
2024-01-14T04:24:43.125Z,59.80
2024-01-14T04:25:15.357Z,59.51
2024-01-14T04:25:47.343Z,59.86
2024-01-14T04:26:23.222Z,59.30
2024-01-14T04:26:55.185Z,58.91
2024-01-14T04:27:27.215Z,58.65
2024-01-14T04:27:59.148Z,58.97
2024-01-14T04:28:31.053Z,59.29
2024-01-14T04:29:02.961Z,58.72
2024-01-14T04:29:35.264Z,58.65
2024-01-14T04:30:08.073Z,58.98
2024-01-14T04:30:40.152Z,58.74
2024-01-14T04:31:12.342Z,58.50
2024-01-14T04:31:44.331Z,58.85
2024-01-14T04:32:16.256Z,58.67
2024-01-14T04:32:50.827Z,58.12
2024-01-14T04:33:23.482Z,58.29
2024-01-14T04:33:56.850Z,58.36
2024-01-14T04:34:28.969Z,58.64
2024-01-14T04:35:01.303Z,58.86
2024-01-14T04:35:33.350Z,58.21
2024-01-14T04:36:05.851Z,58.93
2024-01-14T04:36:37.928Z,58.47
2024-01-14T04:37:09.919Z,58.95
2024-01-14T04:37:41.818Z,58.68
2024-01-14T04:38:14.085Z,58.48
2024-01-14T04:38:46.053Z,58.48
2024-01-14T04:39:18.094Z,59.15
2024-01-14T04:39:50.028Z,59.17
2024-01-14T04:40:21.970Z,59.32
2024-01-14T04:40:53.901Z,59.08
2024-01-14T04:41:25.880Z,59.41
2024-01-14T04:41:58.903Z,58.55
2024-01-14T04:42:31.002Z,58.92
2024-01-14T04:43:03.206Z,59.06
2024-01-14T04:43:36.462Z,58.97
2024-01-14T04:44:08.424Z,58.81
2024-01-14T04:44:40.341Z,58.73
2024-01-14T04:45:12.319Z,59.40
2024-01-14T04:45:44.307Z,58.97
2024-01-14T04:46:16.249Z,58.95
2024-01-14T04:46:48.229Z,58.89
2024-01-14T04:47:20.173Z,59.06
2024-01-14T04:47:52.242Z,58.28
2024-01-14T04:48:24.396Z,58.55
2024-01-14T04:48:56.748Z,58.52
2024-01-14T04:49:29.175Z,58.29
2024-01-14T04:50:01.636Z,58.10
2024-01-14T04:50:33.823Z,58.74
2024-01-14T04:51:06.130Z,58.17
2024-01-14T04:51:39.259Z,58.85
2024-01-14T04:52:11.480Z,59.24
2024-01-14T04:52:43.530Z,58.95
2024-01-14T04:53:15.599Z,58.47
2024-01-14T04:53:47.547Z,59.16
2024-01-14T04:54:19.537Z,58.87
2024-01-14T04:54:51.535Z,58.48
2024-01-14T04:55:23.447Z,58.60
2024-01-14T04:55:55.441Z,58.85
2024-01-14T04:56:27.431Z,58.49
2024-01-14T04:56:59.684Z,58.64
2024-01-14T04:57:31.807Z,58.70
2024-01-14T04:58:03.920Z,58.99
2024-01-14T04:58:35.846Z,58.50
2024-01-14T04:59:07.900Z,58.89
2024-01-14T04:59:39.802Z,58.83
2024-01-14T05:00:13.810Z,58.29
2024-01-14T05:00:46.215Z,58.89
2024-01-14T05:01:18.279Z,58.73
2024-01-14T05:01:50.231Z,58.88
2024-01-14T05:02:22.144Z,58.93
2024-01-14T05:02:54.127Z,58.61
2024-01-14T05:03:26.366Z,58.39
2024-01-14T05:03:58.497Z,58.06
2024-01-14T05:04:30.570Z,58.60
2024-01-14T05:05:02.907Z,58.73
2024-01-14T05:05:34.910Z,58.27
2024-01-14T05:06:07.149Z,58.57
2024-01-14T05:06:39.233Z,58.30
2024-01-14T05:07:11.832Z,58.00
2024-01-14T05:07:43.823Z,58.71
2024-01-14T05:08:15.730Z,58.98
2024-01-14T05:08:47.688Z,58.99
2024-01-14T05:09:19.622Z,58.98
2024-01-14T05:09:51.796Z,58.59
2024-01-14T05:10:23.738Z,58.67
2024-01-14T05:10:55.694Z,59.14
2024-01-14T05:11:27.677Z,59.57
2024-01-14T05:11:59.675Z,58.83
2024-01-14T05:12:31.706Z,58.69
2024-01-14T05:13:03.697Z,59.33
2024-01-14T05:13:35.615Z,58.65
2024-01-14T05:14:07.526Z,58.68
2024-01-14T05:14:39.903Z,58.28
2024-01-14T05:15:11.917Z,59.41
2024-01-14T05:15:43.932Z,58.58
2024-01-14T05:16:15.883Z,59.14
2024-01-14T05:16:47.855Z,59.12
2024-01-14T05:17:19.791Z,58.79
2024-01-14T05:17:51.932Z,59.09
2024-01-14T05:18:24.084Z,58.64
2024-01-14T05:18:57.476Z,58.64
2024-01-14T05:19:30.003Z,58.56
2024-01-14T05:20:02.430Z,58.91
2024-01-14T05:20:34.552Z,59.29
2024-01-14T05:21:07.740Z,59.03
2024-01-14T05:21:39.768Z,59.14
2024-01-14T05:22:11.740Z,58.88
2024-01-14T05:22:43.676Z,59.36
2024-01-14T05:23:15.617Z,58.79
2024-01-14T05:23:47.648Z,59.03
2024-01-14T05:24:19.693Z,58.90
2024-01-14T05:24:51.699Z,59.36
2024-01-14T05:25:23.728Z,58.82
2024-01-14T05:25:55.657Z,58.96
2024-01-14T05:26:27.625Z,59.22
2024-01-14T05:26:59.616Z,58.75
2024-01-14T05:27:31.676Z,59.30
2024-01-14T05:28:03.731Z,59.19
2024-01-14T05:28:35.774Z,59.03
2024-01-14T05:29:07.733Z,59.30
2024-01-14T05:29:43.102Z,59.04
2024-01-14T05:30:18.565Z,58.78
2024-01-14T05:30:50.572Z,58.72
2024-01-14T05:31:22.593Z,58.66
2024-01-14T05:31:54.593Z,58.75
2024-01-14T05:32:26.600Z,58.68
2024-01-14T05:32:58.631Z,58.50
2024-01-14T05:33:30.857Z,59.06
2024-01-14T05:34:02.913Z,58.58
2024-01-14T05:34:34.932Z,58.52
2024-01-14T05:35:06.865Z,58.49
2024-01-14T05:35:38.867Z,58.63
2024-01-14T05:36:10.827Z,58.76
2024-01-14T05:36:42.813Z,58.26
2024-01-14T05:37:14.844Z,59.15
2024-01-14T05:37:46.768Z,58.51
2024-01-14T05:38:18.728Z,58.64
2024-01-14T05:38:50.696Z,59.12
2024-01-14T05:39:22.959Z,58.62
2024-01-14T05:39:54.915Z,59.82
2024-01-14T05:40:26.822Z,58.98
2024-01-14T05:40:58.807Z,58.97
2024-01-14T05:41:30.704Z,59.17
2024-01-14T05:42:02.923Z,59.03
2024-01-14T05:42:34.969Z,59.06
2024-01-14T05:43:07.305Z,59.35
2024-01-14T05:43:40.685Z,59.80
2024-01-14T05:44:12.591Z,59.06
2024-01-14T05:44:44.555Z,59.06
2024-01-14T05:45:16.549Z,58.90
2024-01-14T05:45:48.486Z,59.46
2024-01-14T05:46:20.416Z,58.84
2024-01-14T05:46:52.359Z,59.04
2024-01-14T05:47:24.313Z,59.03
2024-01-14T05:47:56.563Z,58.92
2024-01-14T05:48:28.701Z,58.50
2024-01-14T05:49:00.954Z,59.33
2024-01-14T05:49:33.178Z,58.72
2024-01-14T05:50:05.609Z,59.09
2024-01-14T05:50:37.554Z,59.11
2024-01-14T05:51:10.829Z,58.99
2024-01-14T05:51:43.171Z,59.28
2024-01-14T05:52:15.143Z,59.53
2024-01-14T05:52:47.051Z,59.07
2024-01-14T05:53:20.253Z,59.52
2024-01-14T05:53:52.179Z,59.51
2024-01-14T05:54:24.177Z,59.44
2024-01-14T05:54:56.139Z,59.31
2024-01-14T05:55:28.090Z,59.82
2024-01-14T05:56:00.069Z,59.71
2024-01-14T05:56:32.003Z,60.28
2024-01-14T05:57:04.087Z,60.30
2024-01-14T05:57:36.066Z,60.00
2024-01-14T05:58:07.973Z,59.70
2024-01-14T05:58:42.972Z,60.38
2024-01-14T05:59:14.928Z,60.34
2024-01-14T05:59:46.840Z,60.16
2024-01-14T06:00:23.485Z,59.70
2024-01-14T06:00:55.655Z,60.58
2024-01-14T06:01:30.600Z,60.17
2024-01-14T06:02:02.553Z,59.74
2024-01-14T06:02:34.566Z,59.87
2024-01-14T06:03:06.514Z,60.45
2024-01-14T06:03:38.583Z,60.45
2024-01-14T06:04:10.568Z,60.21
2024-01-14T06:04:42.574Z,60.39
2024-01-14T06:05:14.583Z,60.16
2024-01-14T06:05:46.754Z,60.54
2024-01-14T06:06:18.917Z,60.08
2024-01-14T06:06:51.142Z,60.21
2024-01-14T06:07:23.661Z,60.48
2024-01-14T06:07:55.631Z,60.15
2024-01-14T06:08:27.556Z,60.54
2024-01-14T06:08:59.502Z,59.42
2024-01-14T06:09:32.207Z,59.64
2024-01-14T06:10:04.869Z,59.96
2024-01-14T06:10:38.738Z,60.41
2024-01-14T06:11:13.602Z,59.60
2024-01-14T06:11:45.519Z,59.76
2024-01-14T06:12:17.674Z,60.18
2024-01-14T06:12:49.687Z,60.18
2024-01-14T06:13:21.632Z,59.73
2024-01-14T06:13:53.578Z,59.46
2024-01-14T06:14:25.506Z,60.07
2024-01-14T06:14:57.512Z,59.75
2024-01-14T06:15:29.741Z,59.80
2024-01-14T06:16:02.654Z,59.68
2024-01-14T06:16:39.295Z,59.32
2024-01-14T06:17:11.236Z,59.70
2024-01-14T06:17:43.212Z,59.42
2024-01-14T06:18:15.294Z,60.00
2024-01-14T06:18:47.543Z,60.27
2024-01-14T06:19:19.604Z,59.59
2024-01-14T06:19:51.718Z,59.60
2024-01-14T06:20:23.766Z,60.07
2024-01-14T06:21:01.609Z,59.98
2024-01-14T06:21:33.690Z,59.89
2024-01-14T06:22:05.682Z,59.87
2024-01-14T06:22:37.613Z,60.09
2024-01-14T06:23:09.504Z,59.69
2024-01-14T06:23:41.524Z,59.75
2024-01-14T06:24:17.257Z,59.69
2024-01-14T06:24:49.325Z,59.84
2024-01-14T06:25:21.243Z,59.87
2024-01-14T06:25:53.182Z,60.19
2024-01-14T06:26:25.132Z,60.30
2024-01-14T06:26:57.959Z,60.52
2024-01-14T06:27:30.004Z,60.58
2024-01-14T06:28:03.675Z,60.94
2024-01-14T06:28:35.617Z,59.84
2024-01-14T06:29:07.750Z,60.83
2024-01-14T06:29:41.377Z,60.11
2024-01-14T06:30:14.423Z,59.69
2024-01-14T06:30:46.786Z,59.77
2024-01-14T06:31:19.064Z,60.90
2024-01-14T06:31:51.162Z,60.39
2024-01-14T06:32:23.086Z,59.97
2024-01-14T06:32:58.166Z,59.99
2024-01-14T06:33:32.383Z,60.22
2024-01-14T06:34:05.080Z,60.40
2024-01-14T06:34:37.283Z,60.42
2024-01-14T06:35:09.642Z,60.58
2024-01-14T06:35:41.702Z,60.47
2024-01-14T06:36:13.935Z,60.60
2024-01-14T06:36:45.976Z,60.68
2024-01-14T06:37:17.942Z,60.08
2024-01-14T06:37:51.044Z,60.42
2024-01-14T06:38:22.973Z,60.59
2024-01-14T06:38:54.900Z,60.38
2024-01-14T06:39:26.877Z,60.07
2024-01-14T06:39:58.808Z,60.38
2024-01-14T06:40:35.888Z,60.17
2024-01-14T06:41:23.301Z,59.99
2024-01-14T06:41:55.251Z,60.00
2024-01-14T06:42:29.069Z,60.46
2024-01-14T06:43:01.366Z,59.92
2024-01-14T06:43:33.295Z,60.10
2024-01-14T06:44:05.246Z,59.69
2024-01-14T06:44:39.867Z,59.91
2024-01-14T06:45:14.073Z,59.99
2024-01-14T06:45:45.991Z,59.99
2024-01-14T06:46:17.908Z,60.20
2024-01-14T06:46:49.883Z,60.48
2024-01-14T06:47:21.788Z,60.19
2024-01-14T06:47:54.012Z,60.05
2024-01-14T06:48:26.177Z,60.31
2024-01-14T06:48:58.330Z,59.64
2024-01-14T06:49:30.526Z,59.92
2024-01-14T06:50:10.718Z,59.76
2024-01-14T06:50:46.747Z,59.65
2024-01-14T06:51:18.716Z,60.03
2024-01-14T06:51:50.732Z,59.88
2024-01-14T06:52:23.833Z,59.76
2024-01-14T06:52:55.761Z,59.92
2024-01-14T06:53:27.685Z,59.68
2024-01-14T06:53:59.605Z,60.15
2024-01-14T06:54:31.557Z,59.81
2024-01-14T06:55:05.578Z,59.88
2024-01-14T06:55:37.563Z,59.97
2024-01-14T06:56:09.979Z,59.54
2024-01-14T06:56:48.337Z,59.55
2024-01-14T06:57:20.341Z,59.38